sensor_id;sensor_type;location;lat;lon;timestamp;temperature;humidity
17007;DHT22;8620;51.168;4.154;2023-02-26T07:35:04;2.10;99.90
17007;DHT22;8620;51.168;4.154;2023-02-26T07:37:33;2.20;99.90
17007;DHT22;8620;51.168;4.154;2023-02-26T07:39:59;2.40;99.90
17007;DHT22;8620;51.168;4.154;2023-02-26T07:42:25;2.40;99.90
17007;DHT22;8620;51.168;4.154;2023-02-26T07:44:51;2.40;99.90
17007;DHT22;8620;51.168;4.154;2023-02-26T07:47:20;2.40;99.90
17007;DHT22;8620;51.168;4.154;2023-02-26T07:49:46;2.50;99.90
17007;DHT22;8620;51.168;4.154;2023-02-26T07:52:12;2.60;99.90
17007;DHT22;8620;51.168;4.154;2023-02-26T07:54:38;2.60;99.90
17007;DHT22;8620;51.168;4.154;2023-02-26T07:57:07;2.80;99.90
17007;DHT22;8620;51.168;4.154;2023-02-26T07:59:36;2.80;99.90
17007;DHT22;8620;51.168;4.154;2023-02-26T08:02:02;2.90;99.90
17007;DHT22;8620;51.168;4.154;2023-02-26T08:04:31;3.00;99.90
17007;DHT22;8620;51.168;4.154;2023-02-26T08:07:21;3.00;99.90
17007;DHT22;8620;51.168;4.154;2023-02-26T08:09:47;3.10;99.90
17007;DHT22;8620;51.168;4.154;2023-02-26T08:12:15;3.20;99.90
17007;DHT22;8620;51.168;4.154;2023-02-26T08:14:44;3.30;99.90
17007;DHT22;8620;51.168;4.154;2023-02-26T08:17:32;3.40;99.90
17007;DHT22;8620;51.168;4.154;2023-02-26T08:20:08;3.60;99.90
17007;DHT22;8620;51.168;4.154;2023-02-26T08:22:40;3.80;99.90
17007;DHT22;8620;51.168;4.154;2023-02-26T08:25:12;4.10;99.90
17007;DHT22;8620;51.168;4.154;2023-02-26T08:27:38;4.10;99.90
17007;DHT22;8620;51.168;4.154;2023-02-26T08:30:18;4.30;99.90
17007;DHT22;8620;51.168;4.154;2023-02-26T08:32:52;4.00;99.90
17007;DHT22;8620;51.168;4.154;2023-02-26T08:35:20;4.30;99.90
17007;DHT22;8620;51.168;4.154;2023-02-26T08:38:10;4.50;99.90
17007;DHT22;8620;51.168;4.154;2023-02-26T08:41:17;4.40;99.90
17007;DHT22;8620;51.168;4.154;2023-02-26T08:43:57;4.60;99.90
17007;DHT22;8620;51.168;4.154;2023-02-26T08:47:05;4.80;99.90
17007;DHT22;8620;51.168;4.154;2023-02-26T08:50:01;4.70;99.90
17007;DHT22;8620;51.168;4.154;2023-02-26T08:52:53;4.60;99.90
17007;DHT22;8620;51.168;4.154;2023-02-26T08:55:50;5.10;99.90
17007;DHT22;8620;51.168;4.154;2023-02-26T08:58:45;4.80;99.90
17007;DHT22;8620;51.168;4.154;2023-02-26T09:01:18;4.80;99.90
17007;DHT22;8620;51.168;4.154;2023-02-26T09:04:18;5.00;99.90
17007;DHT22;8620;51.168;4.154;2023-02-26T09:07:01;4.90;99.90
17007;DHT22;8620;51.168;4.154;2023-02-26T09:09:36;5.00;99.90
17007;DHT22;8620;51.168;4.154;2023-02-26T09:12:25;4.90;99.90
17007;DHT22;8620;51.168;4.154;2023-02-26T09:15:13;4.80;99.90
17007;DHT22;8620;51.168;4.154;2023-02-26T09:18:09;4.70;99.90
17007;DHT22;8620;51.168;4.154;2023-02-26T09:21:01;4.70;99.90
17007;DHT22;8620;51.168;4.154;2023-02-26T09:23:39;4.70;99.90
17007;DHT22;8620;51.168;4.154;2023-02-26T09:26:23;5.10;99.90
17007;DHT22;8620;51.168;4.154;2023-02-26T09:29:12;5.50;99.90
17007;DHT22;8620;51.168;4.154;2023-02-26T09:31:59;5.30;99.90
17007;DHT22;8620;51.168;4.154;2023-02-26T09:38:22;5.30;99.90
17007;DHT22;8620;51.168;4.154;2023-02-26T09:41:18;6.00;99.90
17007;DHT22;8620;51.168;4.154;2023-02-26T09:46:53;6.30;99.90
17007;DHT22;8620;51.168;4.154;2023-02-26T09:53:30;6.20;99.90
17007;DHT22;8620;51.168;4.154;2023-02-26T09:57:00;5.90;99.90
17007;DHT22;8620;51.168;4.154;2023-02-26T10:00:06;6.10;99.90
17007;DHT22;8620;51.168;4.154;2023-02-26T10:08:43;6.50;99.90
17007;DHT22;8620;51.168;4.154;2023-02-26T10:14:09;6.70;99.90
17007;DHT22;8620;51.168;4.154;2023-02-26T10:16:45;6.00;99.90
17007;DHT22;8620;51.168;4.154;2023-02-26T10:19:18;5.80;99.90
17007;DHT22;8620;51.168;4.154;2023-02-26T10:37:08;6.40;99.90
17007;DHT22;8620;51.168;4.154;2023-02-26T10:46:08;6.10;99.90
17007;DHT22;8620;51.168;4.154;2023-02-26T10:52:34;6.20;99.90
17007;DHT22;8620;51.168;4.154;2023-02-26T11:07:35;5.70;99.90
17007;DHT22;8620;51.168;4.154;2023-02-26T11:10:39;6.00;99.90
17007;DHT22;8620;51.168;4.154;2023-02-26T11:13:53;6.40;99.90
17007;DHT22;8620;51.168;4.154;2023-02-26T11:16:57;7.00;99.90
17007;DHT22;8620;51.168;4.154;2023-02-26T11:19:40;6.90;99.90
17007;DHT22;8620;51.168;4.154;2023-02-26T11:22:31;6.70;99.90
17007;DHT22;8620;51.168;4.154;2023-02-26T11:25:23;6.60;99.90
17007;DHT22;8620;51.168;4.154;2023-02-26T11:28:20;6.20;99.90
17007;DHT22;8620;51.168;4.154;2023-02-26T11:30:48;6.60;99.90
17007;DHT22;8620;51.168;4.154;2023-02-26T11:33:37;6.30;99.90
17007;DHT22;8620;51.168;4.154;2023-02-26T11:36:30;6.30;99.90
17007;DHT22;8620;51.168;4.154;2023-02-26T11:39:04;6.40;99.90
17007;DHT22;8620;51.168;4.154;2023-02-26T11:42:03;6.60;99.90
17007;DHT22;8620;51.168;4.154;2023-02-26T11:44:53;6.50;99.90
17007;DHT22;8620;51.168;4.154;2023-02-26T11:47:45;6.80;99.90
17007;DHT22;8620;51.168;4.154;2023-02-26T11:51:02;6.30;99.90
17007;DHT22;8620;51.168;4.154;2023-02-26T12:04:48;7.00;99.90
17007;DHT22;8620;51.168;4.154;2023-02-26T12:57:47;7.50;99.90
17007;DHT22;8620;51.168;4.154;2023-02-26T13:26:53;6.90;99.90
17007;DHT22;8620;51.168;4.154;2023-02-26T13:34:09;6.40;99.90
17007;DHT22;8620;51.168;4.154;2023-02-26T13:37:37;6.20;99.90
17007;DHT22;8620;51.168;4.154;2023-02-26T13:50:29;6.40;99.90
17007;DHT22;8620;51.168;4.154;2023-02-26T13:53:34;6.10;99.90
17007;DHT22;8620;51.168;4.154;2023-02-26T13:56:21;6.30;99.90
17007;DHT22;8620;51.168;4.154;2023-02-26T14:05:55;6.20;99.90
17007;DHT22;8620;51.168;4.154;2023-02-26T14:19:45;6.40;99.90
17007;DHT22;8620;51.168;4.154;2023-02-26T14:28:56;6.60;99.90
17007;DHT22;8620;51.168;4.154;2023-02-26T14:32:33;6.30;99.90
17007;DHT22;8620;51.168;4.154;2023-02-26T14:34:50;6.40;99.90
17007;DHT22;8620;51.168;4.154;2023-02-26T14:37:27;6.50;99.90
17007;DHT22;8620;51.168;4.154;2023-02-26T14:40:25;6.40;99.90
17007;DHT22;8620;51.168;4.154;2023-02-26T14:42:58;6.50;99.90
17007;DHT22;8620;51.168;4.154;2023-02-26T14:45:36;6.40;99.90
17007;DHT22;8620;51.168;4.154;2023-02-26T14:48:31;6.20;99.90
17007;DHT22;8620;51.168;4.154;2023-02-26T14:57:57;6.30;99.90
17007;DHT22;8620;51.168;4.154;2023-02-26T15:03:05;6.20;99.90
17007;DHT22;8620;51.168;4.154;2023-02-26T15:09:06;6.30;99.90
17007;DHT22;8620;51.168;4.154;2023-02-26T15:24:39;6.20;99.90
17007;DHT22;8620;51.168;4.154;2023-02-26T15:27:34;6.20;99.90
17007;DHT22;8620;51.168;4.154;2023-02-26T15:41:34;6.50;99.90
17007;DHT22;8620;51.168;4.154;2023-02-26T15:44:40;6.40;99.90
17007;DHT22;8620;51.168;4.154;2023-02-26T15:50:28;6.20;99.90
17007;DHT22;8620;51.168;4.154;2023-02-26T15:53:20;6.30;99.90
17007;DHT22;8620;51.168;4.154;2023-02-26T15:56:56;6.40;99.90
17007;DHT22;8620;51.168;4.154;2023-02-26T16:00:07;6.30;99.90
17007;DHT22;8620;51.168;4.154;2023-02-26T16:02:56;6.30;99.90
17007;DHT22;8620;51.168;4.154;2023-02-26T16:05:53;6.50;99.90
17007;DHT22;8620;51.168;4.154;2023-02-26T16:09:07;6.40;99.90
17007;DHT22;8620;51.168;4.154;2023-02-26T16:15:51;6.40;99.90
17007;DHT22;8620;51.168;4.154;2023-02-26T16:19:08;6.20;99.90
17007;DHT22;8620;51.168;4.154;2023-02-26T16:22:20;6.20;99.90
17007;DHT22;8620;51.168;4.154;2023-02-26T16:25:03;6.20;99.90
17007;DHT22;8620;51.168;4.154;2023-02-26T16:27:37;6.20;99.90
17007;DHT22;8620;51.168;4.154;2023-02-26T16:30:17;6.20;99.90
17007;DHT22;8620;51.168;4.154;2023-02-26T16:32:53;6.20;99.90
17007;DHT22;8620;51.168;4.154;2023-02-26T16:35:22;6.10;99.90
17007;DHT22;8620;51.168;4.154;2023-02-26T16:37:53;6.30;99.90
17007;DHT22;8620;51.168;4.154;2023-02-26T16:42:59;6.00;99.90
17007;DHT22;8620;51.168;4.154;2023-02-26T16:48:35;6.00;99.90
17007;DHT22;8620;51.168;4.154;2023-02-26T16:51:16;6.00;99.90
17007;DHT22;8620;51.168;4.154;2023-02-26T16:53:49;6.10;99.90
17007;DHT22;8620;51.168;4.154;2023-02-26T16:56:27;5.90;99.90
17007;DHT22;8620;51.168;4.154;2023-02-26T16:59:04;6.00;99.90
17007;DHT22;8620;51.168;4.154;2023-02-26T17:01:37;5.90;99.90
17007;DHT22;8620;51.168;4.154;2023-02-26T17:04:34;5.90;99.90
17007;DHT22;8620;51.168;4.154;2023-02-26T17:10:17;5.80;99.90
17007;DHT22;8620;51.168;4.154;2023-02-26T17:15:50;5.80;99.90
17007;DHT22;8620;51.168;4.154;2023-02-26T17:18:28;5.70;99.90
17007;DHT22;8620;51.168;4.154;2023-02-26T17:20:55;5.80;99.90
17007;DHT22;8620;51.168;4.154;2023-02-26T17:23:30;5.60;99.90
17007;DHT22;8620;51.168;4.154;2023-02-26T17:25:59;5.60;99.90
17007;DHT22;8620;51.168;4.154;2023-02-26T17:28:38;5.60;99.90
17007;DHT22;8620;51.168;4.154;2023-02-26T17:31:13;5.60;99.90
17007;DHT22;8620;51.168;4.154;2023-02-26T17:33:50;5.60;99.90
17007;DHT22;8620;51.168;4.154;2023-02-26T17:36:21;5.60;99.90
17007;DHT22;8620;51.168;4.154;2023-02-26T17:38:56;5.60;99.90
17007;DHT22;8620;51.168;4.154;2023-02-26T17:41:22;5.60;99.90
17007;DHT22;8620;51.168;4.154;2023-02-26T17:43:59;5.60;99.90
17007;DHT22;8620;51.168;4.154;2023-02-26T17:46:36;5.60;99.90
17007;DHT22;8620;51.168;4.154;2023-02-26T17:49:31;5.50;99.90
17007;DHT22;8620;51.168;4.154;2023-02-26T17:52:20;5.60;99.90
17007;DHT22;8620;51.168;4.154;2023-02-26T17:54:49;5.60;99.90
17007;DHT22;8620;51.168;4.154;2023-02-26T17:57:43;5.50;99.90
17007;DHT22;8620;51.168;4.154;2023-02-26T18:00:49;5.50;99.90
17007;DHT22;8620;51.168;4.154;2023-02-26T18:03:43;5.50;99.90
17007;DHT22;8620;51.168;4.154;2023-02-26T18:10:17;5.30;99.90
17007;DHT22;8620;51.168;4.154;2023-02-26T18:13:11;5.30;99.90
17007;DHT22;8620;51.168;4.154;2023-02-26T18:15:39;5.30;99.90
17007;DHT22;8620;51.168;4.154;2023-02-26T18:18:36;5.50;99.90
17007;DHT22;8620;51.168;4.154;2023-02-26T18:21:51;5.20;99.90
17007;DHT22;8620;51.168;4.154;2023-02-26T18:24:34;5.20;99.90
17007;DHT22;8620;51.168;4.154;2023-02-26T18:27:59;5.10;99.90
17007;DHT22;8620;51.168;4.154;2023-02-26T18:30:36;4.90;99.90
17007;DHT22;8620;51.168;4.154;2023-02-26T18:33:29;4.90;99.90
17007;DHT22;8620;51.168;4.154;2023-02-26T18:36:36;5.00;99.90
17007;DHT22;8620;51.168;4.154;2023-02-26T18:39:55;5.00;99.90
17007;DHT22;8620;51.168;4.154;2023-02-26T18:42:43;5.00;99.90
17007;DHT22;8620;51.168;4.154;2023-02-26T18:46:11;4.90;99.90
17007;DHT22;8620;51.168;4.154;2023-02-26T18:49:16;5.00;99.90
17007;DHT22;8620;51.168;4.154;2023-02-26T18:52:15;5.00;99.90
17007;DHT22;8620;51.168;4.154;2023-02-26T19:02:19;4.90;99.90
17007;DHT22;8620;51.168;4.154;2023-02-26T19:05:09;4.80;99.90
17007;DHT22;8620;51.168;4.154;2023-02-26T19:07:35;4.80;99.90
17007;DHT22;8620;51.168;4.154;2023-02-26T19:10:09;4.80;99.90
17007;DHT22;8620;51.168;4.154;2023-02-26T19:13:02;4.80;99.90
17007;DHT22;8620;51.168;4.154;2023-02-26T19:15:43;4.70;99.90
17007;DHT22;8620;51.168;4.154;2023-02-26T19:18:44;4.70;99.90
17007;DHT22;8620;51.168;4.154;2023-02-26T19:21:13;4.80;99.90
17007;DHT22;8620;51.168;4.154;2023-02-26T19:23:43;4.80;99.90
17007;DHT22;8620;51.168;4.154;2023-02-26T19:26:12;4.70;99.90
17007;DHT22;8620;51.168;4.154;2023-02-26T19:28:38;4.70;99.90
17007;DHT22;8620;51.168;4.154;2023-02-26T19:31:10;4.60;99.90
17007;DHT22;8620;51.168;4.154;2023-02-26T19:33:53;4.60;99.90
17007;DHT22;8620;51.168;4.154;2023-02-26T19:36:25;4.60;99.90
17007;DHT22;8620;51.168;4.154;2023-02-26T19:38:54;4.60;99.90
17007;DHT22;8620;51.168;4.154;2023-02-26T19:41:20;4.60;99.90
17007;DHT22;8620;51.168;4.154;2023-02-26T19:43:49;4.60;99.90
17007;DHT22;8620;51.168;4.154;2023-02-26T19:46:17;4.50;99.90
17007;DHT22;8620;51.168;4.154;2023-02-26T19:48:43;4.50;99.90
17007;DHT22;8620;51.168;4.154;2023-02-26T19:51:09;4.50;99.90
17007;DHT22;8620;51.168;4.154;2023-02-26T19:53:35;4.60;99.90
17007;DHT22;8620;51.168;4.154;2023-02-26T19:56:05;4.60;99.90
17007;DHT22;8620;51.168;4.154;2023-02-26T19:58:33;4.60;99.90
17007;DHT22;8620;51.168;4.154;2023-02-26T20:01:03;4.50;99.90
17007;DHT22;8620;51.168;4.154;2023-02-26T20:03:38;4.40;99.90
17007;DHT22;8620;51.168;4.154;2023-02-26T20:06:09;4.40;99.90
17007;DHT22;8620;51.168;4.154;2023-02-26T20:08:38;4.40;99.90
17007;DHT22;8620;51.168;4.154;2023-02-26T20:11:15;4.40;99.90
17007;DHT22;8620;51.168;4.154;2023-02-26T20:13:44;4.40;99.90
17007;DHT22;8620;51.168;4.154;2023-02-26T20:16:14;4.40;99.90
17007;DHT22;8620;51.168;4.154;2023-02-26T20:18:43;4.40;99.90
17007;DHT22;8620;51.168;4.154;2023-02-26T20:21:18;4.40;99.90
17007;DHT22;8620;51.168;4.154;2023-02-26T20:23:50;4.40;99.90
17007;DHT22;8620;51.168;4.154;2023-02-26T20:26:22;4.30;99.90
17007;DHT22;8620;51.168;4.154;2023-02-26T20:28:53;4.30;99.90
17007;DHT22;8620;51.168;4.154;2023-02-26T20:31:22;4.30;99.90
17007;DHT22;8620;51.168;4.154;2023-02-26T20:33:48;4.30;99.90
17007;DHT22;8620;51.168;4.154;2023-02-26T20:36:14;4.20;99.90
17007;DHT22;8620;51.168;4.154;2023-02-26T20:38:42;4.20;99.90
17007;DHT22;8620;51.168;4.154;2023-02-26T20:41:11;4.10;99.90
17007;DHT22;8620;51.168;4.154;2023-02-26T20:43:40;4.10;99.90
17007;DHT22;8620;51.168;4.154;2023-02-26T20:46:08;4.20;99.90
17007;DHT22;8620;51.168;4.154;2023-02-26T20:48:35;4.20;99.90
17007;DHT22;8620;51.168;4.154;2023-02-26T20:51:32;4.10;99.90
17007;DHT22;8620;51.168;4.154;2023-02-26T20:54:30;4.00;99.90
17007;DHT22;8620;51.168;4.154;2023-02-26T20:57:04;4.00;99.90
